Poy Sippi, WI (54967)

7:36 AM CST on February 06, 2016 (GMT -0600)
KWILARSE2 | | Change Station
CLOSE
Current Station
Personal Weather Station
Location: Lake Poygan - Town of Wolf River, WI
Elevation: 792 ft
Nearby Weather Stations

Elev 792 ft 44.17 °N, 88.77 °W | Updated 16 seconds ago

Overcast
Overcast
27.2 °F
Feels Like 17 °F
N
12.0
Wind Variable Wind from WSW
Gusts 13.0 mph

Today
High -- | Low -- °F
--% Chance of Precip.
Yesterday
High -- | Low -- °F
Precip. -- in
Pressure 30.16 in
Visibility 10.0 miles
Clouds Overcast 1100 ft
Windchill 17 °F
Dew Point 24 °F
Humidity 88%
Rainfall 0.00 in
Snow Depth Not available.
7:07 AM 5:12 PM
Waning Crescent, 5% visible
METAR KPCZ 061315Z AUTO 26008KT 10SM OVC011 M02/M05 A3016 RMK AO2 T10231050
Pressure 30.16 in
Visibility 10.0 miles
Clouds Overcast 1100 ft
Windchill 17 °F
Dew Point 24 °F
Humidity 88%
Rainfall 0.00 in
Snow Depth Not available.
7:07 AM 5:12 PM
Waning Crescent, 5% visible
METAR KPCZ 061315Z AUTO 26008KT 10SM OVC011 M02/M05 A3016 RMK AO2 T10231050

10-Day Weather Forecast

Almanac

Astronomy

Feb. 06, 2016 Rise Set
Actual Time
Civil Twilight
Nautical Twilight
Astronomical Twilight
Moon
Length of Visible Light
Length of Day
Tomorrow will be .
, % of the Moon is Illuminated

Today's Extremes

State Highs State Lows

Community

WunderPhotos

Upload Photos

1,890,971 photos uploaded!

WunderBlog® & News

Nearby

Air Quality

  Air Quality AQ Index Pollutant
Not available.

Snow Depth

Station Depth Elevation

Earthquake Activity

City Distance Mag. Time & Date
Minimum magnitude displayed is 2.5.

Coastal Water Temperatures

Place Temperature

Stations

Nearby Weather Stations

Station Location Temp. Windchill Dew Point Humidity Wind Precip. Elev Updated Type
                   

Watches & Warnings

There are currently no watches in effect.